sensor_id;sensor_type;location;lat;lon;timestamp;temperature;humidity
21772;DHT22;11047;47.904;8.110;2023-04-01T00:05:03;5.50;99.90
21772;DHT22;11047;47.904;8.110;2023-04-01T00:08:06;4.90;99.90
21772;DHT22;11047;47.904;8.110;2023-04-01T00:10:51;4.90;99.90
21772;DHT22;11047;47.904;8.110;2023-04-01T00:13:26;4.90;99.90
21772;DHT22;11047;47.904;8.110;2023-04-01T00:16:07;4.90;99.90
21772;DHT22;11047;47.904;8.110;2023-04-01T00:18:40;4.80;99.90
21772;DHT22;11047;47.904;8.110;2023-04-01T00:21:40;4.80;99.90
21772;DHT22;11047;47.904;8.110;2023-04-01T00:24:25;4.70;99.90
21772;DHT22;11047;47.904;8.110;2023-04-01T00:27:00;4.80;99.90
21772;DHT22;11047;47.904;8.110;2023-04-01T00:29:51;4.80;99.90
21772;DHT22;11047;47.904;8.110;2023-04-01T00:32:45;4.70;99.90
21772;DHT22;11047;47.904;8.110;2023-04-01T00:35:21;4.60;99.90
21772;DHT22;11047;47.904;8.110;2023-04-01T00:38:24;4.70;99.90
21772;DHT22;11047;47.904;8.110;2023-04-01T00:41:16;4.70;99.90
21772;DHT22;11047;47.904;8.110;2023-04-01T00:44:14;4.70;99.90
21772;DHT22;11047;47.904;8.110;2023-04-01T00:47:01;5.10;99.90
21772;DHT22;11047;47.904;8.110;2023-04-01T00:49:48;4.80;99.90
21772;DHT22;11047;47.904;8.110;2023-04-01T00:52:53;4.80;99.90
21772;DHT22;11047;47.904;8.110;2023-04-01T00:56:02;4.80;99.90
21772;DHT22;11047;47.904;8.110;2023-04-01T00:59:16;4.80;99.90
21772;DHT22;11047;47.904;8.110;2023-04-01T01:05:38;5.30;99.90
21772;DHT22;11047;47.904;8.110;2023-04-01T01:08:36;4.80;99.90
21772;DHT22;11047;47.904;8.110;2023-04-01T01:11:20;4.90;99.90
21772;DHT22;11047;47.904;8.110;2023-04-01T01:14:01;5.30;99.90
21772;DHT22;11047;47.904;8.110;2023-04-01T01:16:55;4.90;99.90
21772;DHT22;11047;47.904;8.110;2023-04-01T01:20:39;5.30;99.90
21772;DHT22;11047;47.904;8.110;2023-04-01T01:30:19;5.10;99.90
21772;DHT22;11047;47.904;8.110;2023-04-01T01:36:06;5.20;99.90
21772;DHT22;11047;47.904;8.110;2023-04-01T01:38:43;5.10;99.90
21772;DHT22;11047;47.904;8.110;2023-04-01T01:41:20;5.20;99.90
21772;DHT22;11047;47.904;8.110;2023-04-01T01:44:06;5.10;99.90
21772;DHT22;11047;47.904;8.110;2023-04-01T01:46:44;5.10;99.90
21772;DHT22;11047;47.904;8.110;2023-04-01T01:49:23;4.50;99.90
21772;DHT22;11047;47.904;8.110;2023-04-01T01:52:02;5.10;99.90
21772;DHT22;11047;47.904;8.110;2023-04-01T01:54:45;5.20;99.90
21772;DHT22;11047;47.904;8.110;2023-04-01T01:57:38;5.10;99.90
21772;DHT22;11047;47.904;8.110;2023-04-01T02:00:32;5.20;99.90
21772;DHT22;11047;47.904;8.110;2023-04-01T02:03:19;5.20;99.90
21772;DHT22;11047;47.904;8.110;2023-04-01T02:06:01;5.00;99.90
21772;DHT22;11047;47.904;8.110;2023-04-01T02:08:57;5.30;99.90
21772;DHT22;11047;47.904;8.110;2023-04-01T02:12:28;5.20;99.90
21772;DHT22;11047;47.904;8.110;2023-04-01T02:15:03;5.20;99.90
21772;DHT22;11047;47.904;8.110;2023-04-01T02:17:44;5.10;99.90
21772;DHT22;11047;47.904;8.110;2023-04-01T02:20:57;5.10;99.90
21772;DHT22;11047;47.904;8.110;2023-04-01T02:23:49;5.10;99.90
21772;DHT22;11047;47.904;8.110;2023-04-01T02:26:45;5.10;99.90
21772;DHT22;11047;47.904;8.110;2023-04-01T02:29:23;5.10;99.90
21772;DHT22;11047;47.904;8.110;2023-04-01T02:32:16;5.00;99.90
21772;DHT22;11047;47.904;8.110;2023-04-01T02:35:00;5.50;99.90
21772;DHT22;11047;47.904;8.110;2023-04-01T02:37:35;5.00;99.90
21772;DHT22;11047;47.904;8.110;2023-04-01T02:40:08;5.00;99.90
21772;DHT22;11047;47.904;8.110;2023-04-01T02:53:14;5.20;99.90
21772;DHT22;11047;47.904;8.110;2023-04-01T02:55:50;4.60;99.90
21772;DHT22;11047;47.904;8.110;2023-04-01T02:58:23;4.80;99.90
21772;DHT22;11047;47.904;8.110;2023-04-01T03:00:57;4.80;99.90
21772;DHT22;11047;47.904;8.110;2023-04-01T03:03:29;4.70;99.90
21772;DHT22;11047;47.904;8.110;2023-04-01T03:06:16;4.70;99.90
21772;DHT22;11047;47.904;8.110;2023-04-01T03:09:22;4.70;99.90
21772;DHT22;11047;47.904;8.110;2023-04-01T03:14:57;4.90;99.90
21772;DHT22;11047;47.904;8.110;2023-04-01T03:17:29;4.60;99.90
21772;DHT22;11047;47.904;8.110;2023-04-01T03:20:05;4.60;99.90
21772;DHT22;11047;47.904;8.110;2023-04-01T03:22:44;4.60;99.90
21772;DHT22;11047;47.904;8.110;2023-04-01T03:25:23;4.60;99.90
21772;DHT22;11047;47.904;8.110;2023-04-01T03:27:51;4.50;99.90
21772;DHT22;11047;47.904;8.110;2023-04-01T03:30:30;4.60;99.90
21772;DHT22;11047;47.904;8.110;2023-04-01T03:33:39;4.70;99.90
21772;DHT22;11047;47.904;8.110;2023-04-01T03:36:50;5.30;99.90
21772;DHT22;11047;47.904;8.110;2023-04-01T03:39:53;4.70;99.90
21772;DHT22;11047;47.904;8.110;2023-04-01T03:42:38;4.60;99.90
21772;DHT22;11047;47.904;8.110;2023-04-01T03:45:22;4.60;99.90
21772;DHT22;11047;47.904;8.110;2023-04-01T03:48:04;4.70;99.90
21772;DHT22;11047;47.904;8.110;2023-04-01T03:51:01;4.60;99.90
21772;DHT22;11047;47.904;8.110;2023-04-01T03:53:49;4.90;99.90
21772;DHT22;11047;47.904;8.110;2023-04-01T03:56:21;4.60;99.90
21772;DHT22;11047;47.904;8.110;2023-04-01T04:02:27;4.60;99.90
21772;DHT22;11047;47.904;8.110;2023-04-01T04:05:14;4.60;99.90
21772;DHT22;11047;47.904;8.110;2023-04-01T04:08:04;4.60;99.90
21772;DHT22;11047;47.904;8.110;2023-04-01T04:10:41;4.50;99.90
21772;DHT22;11047;47.904;8.110;2023-04-01T04:13:16;4.50;99.90
21772;DHT22;11047;47.904;8.110;2023-04-01T04:16:01;4.60;99.90
21772;DHT22;11047;47.904;8.110;2023-04-01T04:19:02;5.20;99.90
21772;DHT22;11047;47.904;8.110;2023-04-01T04:21:33;4.60;99.90
21772;DHT22;11047;47.904;8.110;2023-04-01T04:24:08;4.90;99.90
21772;DHT22;11047;47.904;8.110;2023-04-01T04:26:50;4.60;99.90
21772;DHT22;11047;47.904;8.110;2023-04-01T04:29:43;4.50;99.90
21772;DHT22;11047;47.904;8.110;2023-04-01T04:32:17;4.70;99.90
21772;DHT22;11047;47.904;8.110;2023-04-01T04:38:23;4.70;99.90
21772;DHT22;11047;47.904;8.110;2023-04-01T04:41:07;4.60;99.90
21772;DHT22;11047;47.904;8.110;2023-04-01T04:43:48;4.30;99.90
21772;DHT22;11047;47.904;8.110;2023-04-01T04:46:31;4.60;99.90
21772;DHT22;11047;47.904;8.110;2023-04-01T05:03:38;4.70;99.90
21772;DHT22;11047;47.904;8.110;2023-04-01T05:10:12;5.00;99.90
21772;DHT22;11047;47.904;8.110;2023-04-01T05:12:44;4.90;99.90
21772;DHT22;11047;47.904;8.110;2023-04-01T05:15:59;4.90;99.90
21772;DHT22;11047;47.904;8.110;2023-04-01T05:18:27;4.80;99.90
21772;DHT22;11047;47.904;8.110;2023-04-01T05:20:56;4.90;99.90
21772;DHT22;11047;47.904;8.110;2023-04-01T05:23:30;4.90;99.90
21772;DHT22;11047;47.904;8.110;2023-04-01T05:26:02;5.00;99.90
21772;DHT22;11047;47.904;8.110;2023-04-01T05:28:31;5.70;99.90
21772;DHT22;11047;47.904;8.110;2023-04-01T05:31:02;4.80;99.90
21772;DHT22;11047;47.904;8.110;2023-04-01T05:33:32;4.80;99.90
21772;DHT22;11047;47.904;8.110;2023-04-01T05:36:17;4.90;99.90
21772;DHT22;11047;47.904;8.110;2023-04-01T05:38:45;4.90;99.90
21772;DHT22;11047;47.904;8.110;2023-04-01T05:41:13;4.90;99.90
21772;DHT22;11047;47.904;8.110;2023-04-01T05:43:55;4.90;99.90
21772;DHT22;11047;47.904;8.110;2023-04-01T05:46:38;5.00;99.90
21772;DHT22;11047;47.904;8.110;2023-04-01T05:49:08;5.40;99.90
21772;DHT22;11047;47.904;8.110;2023-04-01T05:51:51;5.00;99.90
21772;DHT22;11047;47.904;8.110;2023-04-01T05:54:40;5.10;99.90
21772;DHT22;11047;47.904;8.110;2023-04-01T05:57:09;5.10;99.90
21772;DHT22;11047;47.904;8.110;2023-04-01T05:59:40;5.10;99.90
21772;DHT22;11047;47.904;8.110;2023-04-01T06:02:12;5.20;99.90
21772;DHT22;11047;47.904;8.110;2023-04-01T06:04:39;5.20;99.90
21772;DHT22;11047;47.904;8.110;2023-04-01T06:07:14;5.90;99.90
21772;DHT22;11047;47.904;8.110;2023-04-01T06:09:47;5.10;99.90
21772;DHT22;11047;47.904;8.110;2023-04-01T06:12:39;5.10;99.90
21772;DHT22;11047;47.904;8.110;2023-04-01T06:15:17;4.70;99.90
21772;DHT22;11047;47.904;8.110;2023-04-01T06:18:14;5.00;99.90
21772;DHT22;11047;47.904;8.110;2023-04-01T06:20:47;5.30;99.90
21772;DHT22;11047;47.904;8.110;2023-04-01T06:23:40;5.00;99.90
21772;DHT22;11047;47.904;8.110;2023-04-01T06:26:25;4.50;99.90
21772;DHT22;11047;47.904;8.110;2023-04-01T06:32:18;5.10;99.90
21772;DHT22;11047;47.904;8.110;2023-04-01T06:35:02;5.20;99.90
21772;DHT22;11047;47.904;8.110;2023-04-01T06:37:55;5.00;99.90
21772;DHT22;11047;47.904;8.110;2023-04-01T06:40:52;5.00;99.90
21772;DHT22;11047;47.904;8.110;2023-04-01T06:43:44;4.90;99.90
21772;DHT22;11047;47.904;8.110;2023-04-01T06:46:23;4.90;99.90
21772;DHT22;11047;47.904;8.110;2023-04-01T06:49:10;4.80;99.90
21772;DHT22;11047;47.904;8.110;2023-04-01T06:51:46;4.80;99.90
21772;DHT22;11047;47.904;8.110;2023-04-01T06:54:36;4.80;99.90
21772;DHT22;11047;47.904;8.110;2023-04-01T06:57:16;4.70;99.90
21772;DHT22;11047;47.904;8.110;2023-04-01T06:59:48;4.60;99.90
21772;DHT22;11047;47.904;8.110;2023-04-01T07:02:36;4.60;99.90
21772;DHT22;11047;47.904;8.110;2023-04-01T07:05:06;4.50;99.90
21772;DHT22;11047;47.904;8.110;2023-04-01T07:07:44;4.60;99.90
21772;DHT22;11047;47.904;8.110;2023-04-01T07:10:17;4.60;99.90
21772;DHT22;11047;47.904;8.110;2023-04-01T07:12:52;4.50;99.90
21772;DHT22;11047;47.904;8.110;2023-04-01T07:15:26;4.60;99.90
21772;DHT22;11047;47.904;8.110;2023-04-01T07:18:03;4.80;99.90
21772;DHT22;11047;47.904;8.110;2023-04-01T07:20:37;4.60;99.90
21772;DHT22;11047;47.904;8.110;2023-04-01T07:23:10;4.70;99.90
21772;DHT22;11047;47.904;8.110;2023-04-01T07:25:44;5.50;99.90
21772;DHT22;11047;47.904;8.110;2023-04-01T07:28:17;5.40;99.90
21772;DHT22;11047;47.904;8.110;2023-04-01T07:30:52;5.60;99.90
21772;DHT22;11047;47.904;8.110;2023-04-01T07:33:22;4.30;99.90
21772;DHT22;11047;47.904;8.110;2023-04-01T07:35:55;5.00;99.90
21772;DHT22;11047;47.904;8.110;2023-04-01T07:38:33;4.30;99.90
21772;DHT22;11047;47.904;8.110;2023-04-01T07:41:14;4.30;99.90
21772;DHT22;11047;47.904;8.110;2023-04-01T07:43:56;4.90;99.90
21772;DHT22;11047;47.904;8.110;2023-04-01T07:46:38;5.20;99.90
21772;DHT22;11047;47.904;8.110;2023-04-01T07:49:11;5.10;99.90
21772;DHT22;11047;47.904;8.110;2023-04-01T07:51:52;5.20;99.90
21772;DHT22;11047;47.904;8.110;2023-04-01T07:54:43;5.20;99.90
21772;DHT22;11047;47.904;8.110;2023-04-01T07:57:20;5.70;99.90
21772;DHT22;11047;47.904;8.110;2023-04-01T08:00:00;5.40;99.90
21772;DHT22;11047;47.904;8.110;2023-04-01T08:02:41;5.10;99.90
21772;DHT22;11047;47.904;8.110;2023-04-01T08:05:21;5.10;99.90
21772;DHT22;11047;47.904;8.110;2023-04-01T08:07:57;5.10;99.90
21772;DHT22;11047;47.904;8.110;2023-04-01T08:10:34;5.10;99.90
21772;DHT22;11047;47.904;8.110;2023-04-01T08:13:09;4.90;99.90
21772;DHT22;11047;47.904;8.110;2023-04-01T08:16:01;5.20;99.90
21772;DHT22;11047;47.904;8.110;2023-04-01T08:18:38;5.20;99.90
21772;DHT22;11047;47.904;8.110;2023-04-01T08:21:15;5.20;99.90
21772;DHT22;11047;47.904;8.110;2023-04-01T08:23:47;5.30;99.90
21772;DHT22;11047;47.904;8.110;2023-04-01T08:26:19;5.20;99.90
21772;DHT22;11047;47.904;8.110;2023-04-01T08:28:54;5.40;99.90
21772;DHT22;11047;47.904;8.110;2023-04-01T08:31:31;6.10;99.90
21772;DHT22;11047;47.904;8.110;2023-04-01T08:34:03;5.50;99.90
21772;DHT22;11047;47.904;8.110;2023-04-01T08:36:37;5.50;99.90
21772;DHT22;11047;47.904;8.110;2023-04-01T08:39:12;5.50;99.90
21772;DHT22;11047;47.904;8.110;2023-04-01T08:42:06;5.40;99.90
21772;DHT22;11047;47.904;8.110;2023-04-01T08:48:11;5.40;99.90
21772;DHT22;11047;47.904;8.110;2023-04-01T08:53:58;5.50;99.90
21772;DHT22;11047;47.904;8.110;2023-04-01T08:56:35;5.50;99.90
21772;DHT22;11047;47.904;8.110;2023-04-01T09:02:38;5.40;99.90
21772;DHT22;11047;47.904;8.110;2023-04-01T09:05:29;5.50;99.90
21772;DHT22;11047;47.904;8.110;2023-04-01T09:08:12;5.40;99.90
21772;DHT22;11047;47.904;8.110;2023-04-01T09:11:01;5.30;99.90
21772;DHT22;11047;47.904;8.110;2023-04-01T09:13:48;5.50;99.90
21772;DHT22;11047;47.904;8.110;2023-04-01T09:19:24;5.10;99.90
21772;DHT22;11047;47.904;8.110;2023-04-01T09:22:21;5.80;99.90
21772;DHT22;11047;47.904;8.110;2023-04-01T09:25:13;5.90;99.90
21772;DHT22;11047;47.904;8.110;2023-04-01T09:27:45;5.70;99.90
21772;DHT22;11047;47.904;8.110;2023-04-01T09:30:45;6.50;99.90
21772;DHT22;11047;47.904;8.110;2023-04-01T09:33:50;5.80;99.90
21772;DHT22;11047;47.904;8.110;2023-04-01T09:36:38;5.90;99.90
21772;DHT22;11047;47.904;8.110;2023-04-01T09:39:34;6.00;99.90
21772;DHT22;11047;47.904;8.110;2023-04-01T09:42:41;5.90;99.90
21772;DHT22;11047;47.904;8.110;2023-04-01T09:45:43;5.90;99.90
21772;DHT22;11047;47.904;8.110;2023-04-01T09:48:46;6.00;99.90
21772;DHT22;11047;47.904;8.110;2023-04-01T09:51:29;5.90;99.90
21772;DHT22;11047;47.904;8.110;2023-04-01T09:54:20;5.90;99.90
21772;DHT22;11047;47.904;8.110;2023-04-01T09:57:22;5.80;99.90
21772;DHT22;11047;47.904;8.110;2023-04-01T10:00:21;5.90;99.90
21772;DHT22;11047;47.904;8.110;2023-04-01T10:03:27;5.90;99.90
21772;DHT22;11047;47.904;8.110;2023-04-01T10:06:32;5.90;99.90
21772;DHT22;11047;47.904;8.110;2023-04-01T10:13:03;5.90;99.90
21772;DHT22;11047;47.904;8.110;2023-04-01T10:15:58;5.90;99.90
21772;DHT22;11047;47.904;8.110;2023-04-01T10:22:24;5.70;99.90
21772;DHT22;11047;47.904;8.110;2023-04-01T10:44:33;6.00;99.90
21772;DHT22;11047;47.904;8.110;2023-04-01T10:47:43;6.00;99.90
21772;DHT22;11047;47.904;8.110;2023-04-01T10:50:32;6.00;99.90
21772;DHT22;11047;47.904;8.110;2023-04-01T10:53:13;6.00;99.90
21772;DHT22;11047;47.904;8.110;2023-04-01T10:56:32;5.90;99.90
21772;DHT22;11047;47.904;8.110;2023-04-01T11:05:58;5.90;99.90
21772;DHT22;11047;47.904;8.110;2023-04-01T11:24:54;5.80;99.90
21772;DHT22;11047;47.904;8.110;2023-04-01T11:30:45;5.70;99.90
21772;DHT22;11047;47.904;8.110;2023-04-01T11:33:22;5.80;99.90
21772;DHT22;11047;47.904;8.110;2023-04-01T11:39:24;5.70;99.90
21772;DHT22;11047;47.904;8.110;2023-04-01T11:42:03;5.40;99.90
21772;DHT22;11047;47.904;8.110;2023-04-01T11:44:48;6.30;99.90
21772;DHT22;11047;47.904;8.110;2023-04-01T11:47:36;5.60;99.90
21772;DHT22;11047;47.904;8.110;2023-04-01T11:50:18;5.50;99.90
21772;DHT22;11047;47.904;8.110;2023-04-01T11:55:58;5.30;99.90
21772;DHT22;11047;47.904;8.110;2023-04-01T11:59:03;6.20;99.90
21772;DHT22;11047;47.904;8.110;2023-04-01T12:01:49;5.30;99.90
21772;DHT22;11047;47.904;8.110;2023-04-01T12:04:57;5.30;99.90
21772;DHT22;11047;47.904;8.110;2023-04-01T12:10:27;5.40;99.90
21772;DHT22;11047;47.904;8.110;2023-04-01T12:13:07;5.40;99.90
21772;DHT22;11047;47.904;8.110;2023-04-01T12:15:52;5.40;99.90
21772;DHT22;11047;47.904;8.110;2023-04-01T12:18:26;5.40;99.90
21772;DHT22;11047;47.904;8.110;2023-04-01T12:21:03;5.50;99.90
21772;DHT22;11047;47.904;8.110;2023-04-01T12:24:05;5.50;99.90
21772;DHT22;11047;47.904;8.110;2023-04-01T12:26:52;5.70;99.90
21772;DHT22;11047;47.904;8.110;2023-04-01T12:32:45;5.80;99.90
21772;DHT22;11047;47.904;8.110;2023-04-01T12:35:26;5.90;99.90
21772;DHT22;11047;47.904;8.110;2023-04-01T12:38:23;6.00;99.90
21772;DHT22;11047;47.904;8.110;2023-04-01T12:47:16;6.00;99.90
21772;DHT22;11047;47.904;8.110;2023-04-01T12:50:16;6.00;99.90
21772;DHT22;11047;47.904;8.110;2023-04-01T12:52:58;6.00;99.90
21772;DHT22;11047;47.904;8.110;2023-04-01T12:55:46;6.10;99.90
21772;DHT22;11047;47.904;8.110;2023-04-01T13:02:07;6.20;99.90
21772;DHT22;11047;47.904;8.110;2023-04-01T13:05:06;6.20;99.90
21772;DHT22;11047;47.904;8.110;2023-04-01T13:07:56;6.20;99.90
21772;DHT22;11047;47.904;8.110;2023-04-01T13:10:47;6.40;99.90
21772;DHT22;11047;47.904;8.110;2023-04-01T13:16:28;6.40;99.90
21772;DHT22;11047;47.904;8.110;2023-04-01T13:19:00;6.40;99.90
21772;DHT22;11047;47.904;8.110;2023-04-01T13:21:54;6.50;99.90
21772;DHT22;11047;47.904;8.110;2023-04-01T13:24:35;6.60;99.90
21772;DHT22;11047;47.904;8.110;2023-04-01T13:27:14;6.70;99.90
21772;DHT22;11047;47.904;8.110;2023-04-01T13:30:02;6.80;99.90
21772;DHT22;11047;47.904;8.110;2023-04-01T13:32:41;6.80;99.90
21772;DHT22;11047;47.904;8.110;2023-04-01T13:35:28;6.60;99.90
21772;DHT22;11047;47.904;8.110;2023-04-01T13:41:14;6.90;99.90
21772;DHT22;11047;47.904;8.110;2023-04-01T13:43:57;7.00;99.90
21772;DHT22;11047;47.904;8.110;2023-04-01T13:46:47;7.10;99.90
21772;DHT22;11047;47.904;8.110;2023-04-01T13:49:41;7.00;99.90
21772;DHT22;11047;47.904;8.110;2023-04-01T13:52:40;7.00;99.90
21772;DHT22;11047;47.904;8.110;2023-04-01T13:58:36;7.70;99.90
21772;DHT22;11047;47.904;8.110;2023-04-01T14:01:17;7.60;99.90
21772;DHT22;11047;47.904;8.110;2023-04-01T14:06:56;7.70;99.90
21772;DHT22;11047;47.904;8.110;2023-04-01T14:09:48;7.90;99.90
21772;DHT22;11047;47.904;8.110;2023-04-01T14:12:29;8.10;99.90
21772;DHT22;11047;47.904;8.110;2023-04-01T14:15:25;8.30;99.90
21772;DHT22;11047;47.904;8.110;2023-04-01T14:18:12;8.40;99.90
21772;DHT22;11047;47.904;8.110;2023-04-01T14:20:52;8.40;99.90
21772;DHT22;11047;47.904;8.110;2023-04-01T14:24:01;8.30;99.90
21772;DHT22;11047;47.904;8.110;2023-04-01T14:29:42;8.80;99.90
21772;DHT22;11047;47.904;8.110;2023-04-01T14:32:28;8.70;99.90
21772;DHT22;11047;47.904;8.110;2023-04-01T14:35:31;8.70;99.90
21772;DHT22;11047;47.904;8.110;2023-04-01T14:41:20;8.60;99.90
21772;DHT22;11047;47.904;8.110;2023-04-01T14:50:27;8.30;99.90
21772;DHT22;11047;47.904;8.110;2023-04-01T14:56:05;7.80;99.90
21772;DHT22;11047;47.904;8.110;2023-04-01T14:58:45;7.50;99.90
21772;DHT22;11047;47.904;8.110;2023-04-01T15:01:35;7.20;99.90
21772;DHT22;11047;47.904;8.110;2023-04-01T15:04:26;7.10;99.90
21772;DHT22;11047;47.904;8.110;2023-04-01T15:07:21;7.20;99.90
21772;DHT22;11047;47.904;8.110;2023-04-01T15:10:17;7.90;99.90
21772;DHT22;11047;47.904;8.110;2023-04-01T15:12:59;7.60;99.90
21772;DHT22;11047;47.904;8.110;2023-04-01T15:15:51;7.70;99.90
21772;DHT22;11047;47.904;8.110;2023-04-01T15:18:48;8.00;99.90
21772;DHT22;11047;47.904;8.110;2023-04-01T15:21:53;8.10;99.90
21772;DHT22;11047;47.904;8.110;2023-04-01T15:24:39;8.20;99.90
21772;DHT22;11047;47.904;8.110;2023-04-01T15:27:31;8.30;99.90
21772;DHT22;11047;47.904;8.110;2023-04-01T15:30:27;8.20;99.90
21772;DHT22;11047;47.904;8.110;2023-04-01T15:33:15;8.10;99.90
21772;DHT22;11047;47.904;8.110;2023-04-01T15:35:53;8.10;99.90
21772;DHT22;11047;47.904;8.110;2023-04-01T15:38:33;8.10;99.90
21772;DHT22;11047;47.904;8.110;2023-04-01T15:41:14;8.10;99.90
21772;DHT22;11047;47.904;8.110;2023-04-01T15:43:51;8.10;99.90
21772;DHT22;11047;47.904;8.110;2023-04-01T15:46:40;8.00;99.90
21772;DHT22;11047;47.904;8.110;2023-04-01T15:49:28;7.90;99.90
21772;DHT22;11047;47.904;8.110;2023-04-01T15:52:15;8.00;99.90
21772;DHT22;11047;47.904;8.110;2023-04-01T15:55:14;8.00;99.90
21772;DHT22;11047;47.904;8.110;2023-04-01T15:57:53;8.00;99.90
21772;DHT22;11047;47.904;8.110;2023-04-01T16:00:30;8.00;99.90
21772;DHT22;11047;47.904;8.110;2023-04-01T16:03:29;8.40;99.90
21772;DHT22;11047;47.904;8.110;2023-04-01T16:06:17;7.90;99.90
21772;DHT22;11047;47.904;8.110;2023-04-01T16:09:11;7.90;99.90
21772;DHT22;11047;47.904;8.110;2023-04-01T16:11:53;7.90;99.90
21772;DHT22;11047;47.904;8.110;2023-04-01T16:14:44;7.80;99.90
21772;DHT22;11047;47.904;8.110;2023-04-01T16:17:56;7.80;99.90
21772;DHT22;11047;47.904;8.110;2023-04-01T16:20:49;7.60;99.90
21772;DHT22;11047;47.904;8.110;2023-04-01T16:23:33;7.80;99.90
21772;DHT22;11047;47.904;8.110;2023-04-01T16:26:13;7.40;99.90
21772;DHT22;11047;47.904;8.110;2023-04-01T16:28:57;7.30;99.90
21772;DHT22;11047;47.904;8.110;2023-04-01T16:31:37;7.40;99.90
21772;DHT22;11047;47.904;8.110;2023-04-01T16:34:26;7.20;99.90
21772;DHT22;11047;47.904;8.110;2023-04-01T16:37:07;7.20;99.90
21772;DHT22;11047;47.904;8.110;2023-04-01T16:40:00;7.70;99.90
21772;DHT22;11047;47.904;8.110;2023-04-01T16:42:39;7.10;99.90
21772;DHT22;11047;47.904;8.110;2023-04-01T16:45:28;7.00;99.90
21772;DHT22;11047;47.904;8.110;2023-04-01T16:48:17;7.20;99.90
21772;DHT22;11047;47.904;8.110;2023-04-01T16:50:59;7.00;99.90
21772;DHT22;11047;47.904;8.110;2023-04-01T16:53:36;7.00;99.90
21772;DHT22;11047;47.904;8.110;2023-04-01T16:56:14;7.00;99.90
21772;DHT22;11047;47.904;8.110;2023-04-01T16:59:06;7.00;99.90
21772;DHT22;11047;47.904;8.110;2023-04-01T17:01:44;7.00;99.90
21772;DHT22;11047;47.904;8.110;2023-04-01T17:04:32;6.90;99.90
21772;DHT22;11047;47.904;8.110;2023-04-01T17:07:15;6.90;99.90
21772;DHT22;11047;47.904;8.110;2023-04-01T17:10:17;6.90;99.90
21772;DHT22;11047;47.904;8.110;2023-04-01T17:13:04;7.00;99.90
21772;DHT22;11047;47.904;8.110;2023-04-01T17:15:38;7.10;99.90
21772;DHT22;11047;47.904;8.110;2023-04-01T17:18:27;7.00;99.90
21772;DHT22;11047;47.904;8.110;2023-04-01T17:21:10;6.90;99.90
21772;DHT22;11047;47.904;8.110;2023-04-01T17:24:06;7.00;99.90
21772;DHT22;11047;47.904;8.110;2023-04-01T17:26:53;6.80;99.90
21772;DHT22;11047;47.904;8.110;2023-04-01T17:29:49;6.90;99.90
21772;DHT22;11047;47.904;8.110;2023-04-01T17:32:39;6.90;99.90
21772;DHT22;11047;47.904;8.110;2023-04-01T17:35:17;6.90;99.90
21772;DHT22;11047;47.904;8.110;2023-04-01T17:38:03;6.90;99.90
21772;DHT22;11047;47.904;8.110;2023-04-01T17:40:56;6.80;99.90
21772;DHT22;11047;47.904;8.110;2023-04-01T17:43:41;6.70;99.90
21772;DHT22;11047;47.904;8.110;2023-04-01T17:46:28;6.60;99.90
21772;DHT22;11047;47.904;8.110;2023-04-01T17:49:07;6.60;99.90
21772;DHT22;11047;47.904;8.110;2023-04-01T17:51:46;6.60;99.90
21772;DHT22;11047;47.904;8.110;2023-04-01T17:54:27;6.70;99.90
21772;DHT22;11047;47.904;8.110;2023-04-01T17:57:11;6.60;99.90
21772;DHT22;11047;47.904;8.110;2023-04-01T17:59:56;6.80;99.90
21772;DHT22;11047;47.904;8.110;2023-04-01T18:02:37;7.40;99.90
21772;DHT22;11047;47.904;8.110;2023-04-01T18:05:43;6.40;99.90
21772;DHT22;11047;47.904;8.110;2023-04-01T18:08:33;5.80;99.90
21772;DHT22;11047;47.904;8.110;2023-04-01T18:11:23;6.30;99.90
21772;DHT22;11047;47.904;8.110;2023-04-01T18:14:18;6.30;99.90
21772;DHT22;11047;47.904;8.110;2023-04-01T18:17:01;6.30;99.90
21772;DHT22;11047;47.904;8.110;2023-04-01T18:19:42;6.10;99.90
21772;DHT22;11047;47.904;8.110;2023-04-01T18:22:26;6.10;99.90
21772;DHT22;11047;47.904;8.110;2023-04-01T18:24:58;6.00;99.90
21772;DHT22;11047;47.904;8.110;2023-04-01T18:28:11;5.90;99.90
21772;DHT22;11047;47.904;8.110;2023-04-01T18:30:43;6.80;99.90
21772;DHT22;11047;47.904;8.110;2023-04-01T18:33:19;5.90;99.90
21772;DHT22;11047;47.904;8.110;2023-04-01T18:35:54;5.80;99.90
21772;DHT22;11047;47.904;8.110;2023-04-01T18:38:30;5.80;99.90
21772;DHT22;11047;47.904;8.110;2023-04-01T18:41:10;6.10;99.90
21772;DHT22;11047;47.904;8.110;2023-04-01T18:43:57;5.50;99.90
21772;DHT22;11047;47.904;8.110;2023-04-01T18:46:41;5.80;99.90
21772;DHT22;11047;47.904;8.110;2023-04-01T18:49:21;5.80;99.90
21772;DHT22;11047;47.904;8.110;2023-04-01T18:51:50;5.80;99.90
21772;DHT22;11047;47.904;8.110;2023-04-01T18:54:40;5.70;99.90
21772;DHT22;11047;47.904;8.110;2023-04-01T18:57:16;5.70;99.90
21772;DHT22;11047;47.904;8.110;2023-04-01T18:59:50;5.30;99.90
21772;DHT22;11047;47.904;8.110;2023-04-01T19:02:33;5.70;99.90
21772;DHT22;11047;47.904;8.110;2023-04-01T19:05:34;5.60;99.90
21772;DHT22;11047;47.904;8.110;2023-04-01T19:08:27;5.60;99.90
21772;DHT22;11047;47.904;8.110;2023-04-01T19:11:15;5.60;99.90
21772;DHT22;11047;47.904;8.110;2023-04-01T19:13:53;5.50;99.90
21772;DHT22;11047;47.904;8.110;2023-04-01T19:16:44;5.50;99.90
21772;DHT22;11047;47.904;8.110;2023-04-01T19:19:33;5.50;99.90
21772;DHT22;11047;47.904;8.110;2023-04-01T19:22:20;5.50;99.90
21772;DHT22;11047;47.904;8.110;2023-04-01T19:25:26;5.90;99.90
21772;DHT22;11047;47.904;8.110;2023-04-01T19:28:20;5.40;99.90
21772;DHT22;11047;47.904;8.110;2023-04-01T19:31:02;5.50;99.90
21772;DHT22;11047;47.904;8.110;2023-04-01T19:33:58;6.10;99.90
21772;DHT22;11047;47.904;8.110;2023-04-01T19:36:35;6.00;99.90
21772;DHT22;11047;47.904;8.110;2023-04-01T19:39:37;5.40;99.90
21772;DHT22;11047;47.904;8.110;2023-04-01T19:42:16;5.40;99.90
21772;DHT22;11047;47.904;8.110;2023-04-01T19:44:57;5.30;99.90
21772;DHT22;11047;47.904;8.110;2023-04-01T19:47:46;4.90;99.90
21772;DHT22;11047;47.904;8.110;2023-04-01T19:50:31;5.60;99.90
21772;DHT22;11047;47.904;8.110;2023-04-01T19:53:21;5.40;99.90
21772;DHT22;11047;47.904;8.110;2023-04-01T19:56:03;5.30;99.90
21772;DHT22;11047;47.904;8.110;2023-04-01T19:58:34;5.30;99.90
21772;DHT22;11047;47.904;8.110;2023-04-01T20:01:12;5.30;99.90
21772;DHT22;11047;47.904;8.110;2023-04-01T20:03:47;5.30;99.90
21772;DHT22;11047;47.904;8.110;2023-04-01T20:06:30;5.20;99.90
21772;DHT22;11047;47.904;8.110;2023-04-01T20:12:02;5.90;99.90
21772;DHT22;11047;47.904;8.110;2023-04-01T20:14:38;5.20;99.90
21772;DHT22;11047;47.904;8.110;2023-04-01T20:17:17;4.80;99.90
21772;DHT22;11047;47.904;8.110;2023-04-01T20:20:02;4.80;99.90
21772;DHT22;11047;47.904;8.110;2023-04-01T20:22:54;5.70;99.90
21772;DHT22;11047;47.904;8.110;2023-04-01T20:25:37;5.30;99.90
21772;DHT22;11047;47.904;8.110;2023-04-01T20:28:26;5.20;99.90
21772;DHT22;11047;47.904;8.110;2023-04-01T20:31:20;5.20;99.90
21772;DHT22;11047;47.904;8.110;2023-04-01T20:34:21;5.50;99.90
21772;DHT22;11047;47.904;8.110;2023-04-01T20:39:57;5.80;99.90